sensor_id;sensor_type;location;lat;lon;timestamp;pressure;altitude;pressure_sealevel;temperature;humidity
15932;BME280;8065;49.520;11.284;2022-12-24T00:00:29;96738.00;;;15.37;80.84
15932;BME280;8065;49.520;11.284;2022-12-24T00:02:55;96743.81;;;15.43;81.09
15932;BME280;8065;49.520;11.284;2022-12-24T00:05:22;96742.19;;;15.34;80.83
15932;BME280;8065;49.520;11.284;2022-12-24T00:07:48;96745.13;;;15.22;81.41
15932;BME280;8065;49.520;11.284;2022-12-24T00:10:16;96742.63;;;15.06;81.08
15932;BME280;8065;49.520;11.284;2022-12-24T00:12:43;96748.56;;;15.23;81.22
15932;BME280;8065;49.520;11.284;2022-12-24T00:15:10;96748.81;;;15.11;81.44
15932;BME280;8065;49.520;11.284;2022-12-24T00:17:36;96750.38;;;15.15;80.78
15932;BME280;8065;49.520;11.284;2022-12-24T00:20:03;96755.84;;;15.26;80.06
15932;BME280;8065;49.520;11.284;2022-12-24T00:22:30;96752.09;;;15.30;80.46
15932;BME280;8065;49.520;11.284;2022-12-24T00:24:56;96762.88;;;15.37;80.08
15932;BME280;8065;49.520;11.284;2022-12-24T00:27:24;96774.47;;;15.15;80.54
15932;BME280;8065;49.520;11.284;2022-12-24T00:29:50;96770.41;;;15.28;80.25
15932;BME280;8065;49.520;11.284;2022-12-24T00:32:17;96775.03;;;15.31;80.41
15932;BME280;8065;49.520;11.284;2022-12-24T00:34:43;96764.34;;;15.31;80.61
15932;BME280;8065;49.520;11.284;2022-12-24T00:37:10;96765.06;;;15.28;80.33
15932;BME280;8065;49.520;11.284;2022-12-24T00:39:36;96760.59;;;15.39;80.55
15932;BME280;8065;49.520;11.284;2022-12-24T00:42:03;96766.72;;;15.40;80.22
15932;BME280;8065;49.520;11.284;2022-12-24T00:44:31;96767.09;;;15.38;80.90
15932;BME280;8065;49.520;11.284;2022-12-24T00:46:57;96772.03;;;15.36;80.65
15932;BME280;8065;49.520;11.284;2022-12-24T00:49:23;96775.84;;;15.35;80.50
15932;BME280;8065;49.520;11.284;2022-12-24T00:51:50;96773.50;;;15.30;80.56
15932;BME280;8065;49.520;11.284;2022-12-24T00:54:16;96780.31;;;15.24;80.92
15932;BME280;8065;49.520;11.284;2022-12-24T00:56:43;96778.72;;;15.20;80.71
15932;BME280;8065;49.520;11.284;2022-12-24T00:59:09;96770.97;;;15.11;81.15
15932;BME280;8065;49.520;11.284;2022-12-24T01:01:37;96775.94;;;15.09;80.84
15932;BME280;8065;49.520;11.284;2022-12-24T01:04:04;96781.59;;;15.04;80.33
15932;BME280;8065;49.520;11.284;2022-12-24T01:06:48;96781.50;;;14.97;81.08
15932;BME280;8065;49.520;11.284;2022-12-24T01:09:14;96790.66;;;14.96;80.69
15932;BME280;8065;49.520;11.284;2022-12-24T01:11:41;96803.72;;;15.01;80.67
15932;BME280;8065;49.520;11.284;2022-12-24T01:14:07;96787.06;;;14.85;81.05
15932;BME280;8065;49.520;11.284;2022-12-24T01:16:34;96788.50;;;15.05;79.79
15932;BME280;8065;49.520;11.284;2022-12-24T01:19:01;96796.91;;;15.07;80.08
15932;BME280;8065;49.520;11.284;2022-12-24T01:21:28;96799.81;;;14.95;79.63
15932;BME280;8065;49.520;11.284;2022-12-24T01:23:54;96801.47;;;15.03;79.60
15932;BME280;8065;49.520;11.284;2022-12-24T01:26:21;96809.72;;;14.91;79.15
15932;BME280;8065;49.520;11.284;2022-12-24T01:28:47;96812.56;;;15.05;79.31
15932;BME280;8065;49.520;11.284;2022-12-24T01:31:15;96829.56;;;14.90;78.38
15932;BME280;8065;49.520;11.284;2022-12-24T01:33:43;96839.13;;;14.91;78.91
15932;BME280;8065;49.520;11.284;2022-12-24T01:36:11;96830.28;;;14.87;78.58
15932;BME280;8065;49.520;11.284;2022-12-24T01:38:39;96850.44;;;14.81;78.31
15932;BME280;8065;49.520;11.284;2022-12-24T01:41:05;96847.66;;;14.73;78.82
15932;BME280;8065;49.520;11.284;2022-12-24T01:43:50;96850.44;;;14.81;77.56
15932;BME280;8065;49.520;11.284;2022-12-24T01:46:19;96844.28;;;14.76;78.06
15932;BME280;8065;49.520;11.284;2022-12-24T01:48:52;96859.16;;;14.74;77.79
15932;BME280;8065;49.520;11.284;2022-12-24T01:51:23;96864.53;;;14.77;77.76
15932;BME280;8065;49.520;11.284;2022-12-24T01:53:55;96869.28;;;14.88;76.98
15932;BME280;8065;49.520;11.284;2022-12-24T01:56:23;96872.50;;;14.74;76.60
15932;BME280;8065;49.520;11.284;2022-12-24T01:58:53;96879.78;;;14.73;76.54
15932;BME280;8065;49.520;11.284;2022-12-24T02:01:21;96882.81;;;14.72;76.15
15932;BME280;8065;49.520;11.284;2022-12-24T02:03:48;96873.88;;;14.61;76.69
15932;BME280;8065;49.520;11.284;2022-12-24T02:06:16;96879.16;;;14.57;76.14
15932;BME280;8065;49.520;11.284;2022-12-24T02:08:45;96884.91;;;14.59;75.72
15932;BME280;8065;49.520;11.284;2022-12-24T02:11:14;96874.63;;;14.61;75.53
15932;BME280;8065;49.520;11.284;2022-12-24T02:13:44;96887.91;;;14.54;75.97
15932;BME280;8065;49.520;11.284;2022-12-24T02:16:19;96887.19;;;14.57;75.37
15932;BME280;8065;49.520;11.284;2022-12-24T02:18:56;96898.47;;;14.47;75.28
15932;BME280;8065;49.520;11.284;2022-12-24T02:21:43;96899.53;;;14.42;76.29
15932;BME280;8065;49.520;11.284;2022-12-24T02:24:38;96903.13;;;14.31;75.67
15932;BME280;8065;49.520;11.284;2022-12-24T02:27:27;96901.44;;;14.42;75.69
15932;BME280;8065;49.520;11.284;2022-12-24T02:30:07;96916.88;;;14.52;75.39
15932;BME280;8065;49.520;11.284;2022-12-24T02:32:44;96913.09;;;14.34;76.00
15932;BME280;8065;49.520;11.284;2022-12-24T02:35:18;96920.41;;;14.37;76.20
15932;BME280;8065;49.520;11.284;2022-12-24T02:37:48;96928.84;;;14.39;75.52
15932;BME280;8065;49.520;11.284;2022-12-24T02:40:21;96930.50;;;14.43;75.18
15932;BME280;8065;49.520;11.284;2022-12-24T02:42:52;96937.44;;;14.48;75.43
15932;BME280;8065;49.520;11.284;2022-12-24T02:45:25;96934.41;;;14.50;75.13
15932;BME280;8065;49.520;11.284;2022-12-24T02:47:54;96929.84;;;14.50;75.11
15932;BME280;8065;49.520;11.284;2022-12-24T02:50:21;96941.31;;;14.51;75.21
15932;BME280;8065;49.520;11.284;2022-12-24T02:52:49;96952.91;;;14.39;75.58
15932;BME280;8065;49.520;11.284;2022-12-24T02:55:18;96948.13;;;14.48;75.51
15932;BME280;8065;49.520;11.284;2022-12-24T02:57:57;96947.44;;;14.51;74.80
15932;BME280;8065;49.520;11.284;2022-12-24T03:00:33;96946.88;;;14.42;75.66
15932;BME280;8065;49.520;11.284;2022-12-24T03:03:15;96953.50;;;14.48;75.21
15932;BME280;8065;49.520;11.284;2022-12-24T03:05:49;96959.81;;;14.40;75.11
15932;BME280;8065;49.520;11.284;2022-12-24T03:08:24;96963.25;;;14.40;75.92
15932;BME280;8065;49.520;11.284;2022-12-24T03:11:01;96971.78;;;14.46;75.69
15932;BME280;8065;49.520;11.284;2022-12-24T03:13:29;96969.38;;;14.41;74.97
15932;BME280;8065;49.520;11.284;2022-12-24T03:15:58;96975.84;;;14.40;75.53
15932;BME280;8065;49.520;11.284;2022-12-24T03:18:26;96980.06;;;14.41;75.18
15932;BME280;8065;49.520;11.284;2022-12-24T03:21:01;96989.78;;;14.30;75.39
15932;BME280;8065;49.520;11.284;2022-12-24T03:23:31;96985.41;;;14.41;75.43
15932;BME280;8065;49.520;11.284;2022-12-24T03:26:00;96987.00;;;14.42;75.59
15932;BME280;8065;49.520;11.284;2022-12-24T03:28:27;96986.22;;;14.41;75.43
15932;BME280;8065;49.520;11.284;2022-12-24T03:30:54;96994.84;;;14.35;76.36
15932;BME280;8065;49.520;11.284;2022-12-24T03:33:22;96981.63;;;14.42;76.07
15932;BME280;8065;49.520;11.284;2022-12-24T03:35:48;96985.06;;;14.23;76.87
15932;BME280;8065;49.520;11.284;2022-12-24T03:38:15;96985.22;;;14.30;75.78
15932;BME280;8065;49.520;11.284;2022-12-24T03:40:41;96991.31;;;14.31;76.13
15932;BME280;8065;49.520;11.284;2022-12-24T03:43:07;96987.53;;;14.32;76.48
15932;BME280;8065;49.520;11.284;2022-12-24T03:45:34;96994.34;;;14.29;75.92
15932;BME280;8065;49.520;11.284;2022-12-24T03:48:01;96997.19;;;14.17;76.70
15932;BME280;8065;49.520;11.284;2022-12-24T03:50:29;97000.00;;;14.05;77.70
15932;BME280;8065;49.520;11.284;2022-12-24T03:52:55;97000.91;;;14.13;77.71
15932;BME280;8065;49.520;11.284;2022-12-24T03:55:21;97021.09;;;14.10;77.96
15932;BME280;8065;49.520;11.284;2022-12-24T03:57:48;97013.97;;;14.18;77.70
15932;BME280;8065;49.520;11.284;2022-12-24T04:00:15;97010.88;;;14.16;77.79
15932;BME280;8065;49.520;11.284;2022-12-24T04:02:42;97022.56;;;14.27;77.29
15932;BME280;8065;49.520;11.284;2022-12-24T04:05:12;97034.94;;;14.16;77.74
15932;BME280;8065;49.520;11.284;2022-12-24T04:07:40;97038.09;;;14.02;77.99
15932;BME280;8065;49.520;11.284;2022-12-24T04:10:08;97033.31;;;13.92;78.48
15932;BME280;8065;49.520;11.284;2022-12-24T04:12:35;97031.06;;;14.32;77.56
15932;BME280;8065;49.520;11.284;2022-12-24T04:15:01;97031.97;;;14.40;77.36
15932;BME280;8065;49.520;11.284;2022-12-24T04:17:28;97039.56;;;14.19;77.83
15932;BME280;8065;49.520;11.284;2022-12-24T04:19:54;97046.25;;;14.28;77.77
15932;BME280;8065;49.520;11.284;2022-12-24T04:22:21;97037.25;;;14.36;77.82
15932;BME280;8065;49.520;11.284;2022-12-24T04:24:49;97044.94;;;14.38;77.26
15932;BME280;8065;49.520;11.284;2022-12-24T04:27:15;97054.13;;;14.40;77.01
15932;BME280;8065;49.520;11.284;2022-12-24T04:29:42;97058.28;;;14.38;77.06
15932;BME280;8065;49.520;11.284;2022-12-24T04:32:09;97057.72;;;14.29;77.53
15932;BME280;8065;49.520;11.284;2022-12-24T04:34:35;97058.28;;;14.19;78.02
15932;BME280;8065;49.520;11.284;2022-12-24T04:37:02;97060.91;;;14.34;77.97
15932;BME280;8065;49.520;11.284;2022-12-24T04:39:29;97061.38;;;14.21;78.14
15932;BME280;8065;49.520;11.284;2022-12-24T04:41:57;97071.34;;;14.04;78.02
15932;BME280;8065;49.520;11.284;2022-12-24T04:44:23;97073.59;;;14.02;77.97
15932;BME280;8065;49.520;11.284;2022-12-24T04:46:50;97069.38;;;14.01;78.46
15932;BME280;8065;49.520;11.284;2022-12-24T04:49:16;97079.91;;;13.94;78.31
15932;BME280;8065;49.520;11.284;2022-12-24T04:51:42;97084.97;;;13.99;77.70
15932;BME280;8065;49.520;11.284;2022-12-24T04:54:09;97072.53;;;14.07;77.57
15932;BME280;8065;49.520;11.284;2022-12-24T04:56:35;97080.91;;;14.05;77.22
15932;BME280;8065;49.520;11.284;2022-12-24T04:59:03;97081.06;;;14.13;76.72
15932;BME280;8065;49.520;11.284;2022-12-24T05:01:31;97078.50;;;14.00;76.58
15932;BME280;8065;49.520;11.284;2022-12-24T05:03:58;97072.53;;;14.07;76.82
15932;BME280;8065;49.520;11.284;2022-12-24T05:06:27;97081.22;;;14.20;75.74
15932;BME280;8065;49.520;11.284;2022-12-24T05:08:55;97085.81;;;13.84;76.95
15932;BME280;8065;49.520;11.284;2022-12-24T05:11:21;97097.97;;;13.82;77.30
15932;BME280;8065;49.520;11.284;2022-12-24T05:13:48;97094.09;;;13.79;76.96
15932;BME280;8065;49.520;11.284;2022-12-24T05:16:17;97098.75;;;13.82;77.81
15932;BME280;8065;49.520;11.284;2022-12-24T05:18:45;97096.44;;;13.81;77.31
15932;BME280;8065;49.520;11.284;2022-12-24T05:21:13;97104.50;;;13.84;76.99
15932;BME280;8065;49.520;11.284;2022-12-24T05:23:41;97102.66;;;13.88;76.82
15932;BME280;8065;49.520;11.284;2022-12-24T05:26:27;97107.31;;;13.91;76.47
15932;BME280;8065;49.520;11.284;2022-12-24T05:28:56;97106.75;;;13.82;76.63
15932;BME280;8065;49.520;11.284;2022-12-24T05:31:25;97108.75;;;14.04;76.27
15932;BME280;8065;49.520;11.284;2022-12-24T05:33:52;97105.97;;;14.17;75.52
15932;BME280;8065;49.520;11.284;2022-12-24T05:36:20;97113.28;;;14.20;76.00
15932;BME280;8065;49.520;11.284;2022-12-24T05:38:47;97112.44;;;14.16;75.78
15932;BME280;8065;49.520;11.284;2022-12-24T05:41:13;97115.53;;;14.18;75.90
15932;BME280;8065;49.520;11.284;2022-12-24T05:43:39;97122.50;;;13.87;76.68
15932;BME280;8065;49.520;11.284;2022-12-24T05:46:08;97117.22;;;13.91;77.19
15932;BME280;8065;49.520;11.284;2022-12-24T05:48:36;97133.03;;;13.80;77.53
15932;BME280;8065;49.520;11.284;2022-12-24T05:51:03;97123.81;;;13.77;77.84
15932;BME280;8065;49.520;11.284;2022-12-24T05:53:30;97127.53;;;13.73;78.44
15932;BME280;8065;49.520;11.284;2022-12-24T05:56:02;97125.81;;;13.65;79.12
15932;BME280;8065;49.520;11.284;2022-12-24T05:58:28;97132.88;;;13.73;78.76
15932;BME280;8065;49.520;11.284;2022-12-24T06:00:55;97139.50;;;13.63;79.60
15932;BME280;8065;49.520;11.284;2022-12-24T06:03:21;97142.34;;;13.70;79.26
15932;BME280;8065;49.520;11.284;2022-12-24T06:05:56;97145.88;;;13.74;79.69
15932;BME280;8065;49.520;11.284;2022-12-24T06:08:23;97147.84;;;13.77;79.05
15932;BME280;8065;49.520;11.284;2022-12-24T06:10:53;97145.28;;;13.81;78.86
15932;BME280;8065;49.520;11.284;2022-12-24T06:13:20;97140.53;;;13.74;79.45
15932;BME280;8065;49.520;11.284;2022-12-24T06:15:46;97144.75;;;13.75;79.06
15932;BME280;8065;49.520;11.284;2022-12-24T06:18:13;97142.69;;;13.69;79.35
15932;BME280;8065;49.520;11.284;2022-12-24T06:20:39;97146.91;;;13.70;79.46
15932;BME280;8065;49.520;11.284;2022-12-24T06:23:07;97146.66;;;13.75;78.91
15932;BME280;8065;49.520;11.284;2022-12-24T06:25:33;97140.88;;;13.73;79.37
15932;BME280;8065;49.520;11.284;2022-12-24T06:28:00;97132.97;;;13.76;78.92
15932;BME280;8065;49.520;11.284;2022-12-24T06:30:26;97136.75;;;13.75;79.37
15932;BME280;8065;49.520;11.284;2022-12-24T06:32:53;97141.06;;;13.64;79.73
15932;BME280;8065;49.520;11.284;2022-12-24T06:35:19;97148.13;;;13.72;78.94
15932;BME280;8065;49.520;11.284;2022-12-24T06:37:45;97132.00;;;13.69;79.77
15932;BME280;8065;49.520;11.284;2022-12-24T06:40:13;97142.69;;;13.69;79.77
15932;BME280;8065;49.520;11.284;2022-12-24T06:42:40;97147.34;;;13.72;79.45
15932;BME280;8065;49.520;11.284;2022-12-24T06:45:07;97156.66;;;13.78;79.35
15932;BME280;8065;49.520;11.284;2022-12-24T06:47:34;97156.22;;;13.76;79.41
15932;BME280;8065;49.520;11.284;2022-12-24T06:50:00;97158.03;;;13.72;79.71
15932;BME280;8065;49.520;11.284;2022-12-24T06:52:27;97167.31;;;13.78;79.59
15932;BME280;8065;49.520;11.284;2022-12-24T06:54:53;97161.81;;;13.71;80.07
15932;BME280;8065;49.520;11.284;2022-12-24T06:57:21;97157.69;;;13.58;80.94
15932;BME280;8065;49.520;11.284;2022-12-24T06:59:47;97157.00;;;13.61;81.22
15932;BME280;8065;49.520;11.284;2022-12-24T07:02:14;97167.75;;;13.64;80.74
15932;BME280;8065;49.520;11.284;2022-12-24T07:04:40;97176.28;;;13.70;80.76
15932;BME280;8065;49.520;11.284;2022-12-24T07:07:07;97183.69;;;13.61;81.15
15932;BME280;8065;49.520;11.284;2022-12-24T07:09:33;97180.75;;;13.66;81.47
15932;BME280;8065;49.520;11.284;2022-12-24T07:11:59;97181.63;;;13.70;80.64
15932;BME280;8065;49.520;11.284;2022-12-24T07:14:27;97180.94;;;13.73;81.39
15932;BME280;8065;49.520;11.284;2022-12-24T07:16:54;97191.63;;;13.73;81.37
15932;BME280;8065;49.520;11.284;2022-12-24T07:19:21;97187.22;;;13.65;82.01
15932;BME280;8065;49.520;11.284;2022-12-24T07:21:48;97192.31;;;13.70;81.60
15932;BME280;8065;49.520;11.284;2022-12-24T07:24:15;97203.00;;;13.70;81.74
15932;BME280;8065;49.520;11.284;2022-12-24T07:26:41;97207.19;;;13.55;82.39
15932;BME280;8065;49.520;11.284;2022-12-24T07:29:08;97205.06;;;13.61;82.48
15932;BME280;8065;49.520;11.284;2022-12-24T07:31:35;97203.31;;;13.53;83.30
15932;BME280;8065;49.520;11.284;2022-12-24T07:34:02;97210.22;;;13.54;83.37
15932;BME280;8065;49.520;11.284;2022-12-24T07:36:28;97223.56;;;13.54;83.62
15932;BME280;8065;49.520;11.284;2022-12-24T07:38:55;97228.47;;;13.52;84.38
15932;BME280;8065;49.520;11.284;2022-12-24T07:41:21;97229.16;;;13.49;84.33
15932;BME280;8065;49.520;11.284;2022-12-24T07:43:48;97224.94;;;13.48;84.87
15932;BME280;8065;49.520;11.284;2022-12-24T07:46:14;97217.41;;;13.37;85.20
15932;BME280;8065;49.520;11.284;2022-12-24T07:48:42;97221.38;;;13.43;85.29
15932;BME280;8065;49.520;11.284;2022-12-24T07:51:09;97215.50;;;13.22;86.41
15932;BME280;8065;49.520;11.284;2022-12-24T07:53:35;97225.44;;;13.37;85.65
15932;BME280;8065;49.520;11.284;2022-12-24T07:56:02;97230.53;;;13.42;85.08
15932;BME280;8065;49.520;11.284;2022-12-24T07:58:28;97236.53;;;13.39;85.30
15932;BME280;8065;49.520;11.284;2022-12-24T08:00:56;97233.28;;;13.46;84.76
15932;BME280;8065;49.520;11.284;2022-12-24T08:03:22;97244.91;;;13.54;84.48
15932;BME280;8065;49.520;11.284;2022-12-24T08:05:51;97246.91;;;13.57;85.19
15932;BME280;8065;49.520;11.284;2022-12-24T08:08:17;97246.91;;;13.57;85.25
15932;BME280;8065;49.520;11.284;2022-12-24T08:10:45;97243.28;;;13.65;84.42
15932;BME280;8065;49.520;11.284;2022-12-24T08:13:12;97253.97;;;13.65;84.96
15932;BME280;8065;49.520;11.284;2022-12-24T08:15:38;97247.19;;;13.67;84.95
15932;BME280;8065;49.520;11.284;2022-12-24T08:18:05;97259.50;;;13.72;84.71
15932;BME280;8065;49.520;11.284;2022-12-24T08:20:31;97259.16;;;13.73;85.15
15932;BME280;8065;49.520;11.284;2022-12-24T08:22:59;97253.38;;;13.71;85.24
15932;BME280;8065;49.520;11.284;2022-12-24T08:25:26;97253.47;;;13.75;85.05
15932;BME280;8065;49.520;11.284;2022-12-24T08:27:52;97258.81;;;13.75;85.18
15932;BME280;8065;49.520;11.284;2022-12-24T08:30:19;97267.69;;;13.79;84.33
15932;BME280;8065;49.520;11.284;2022-12-24T08:32:45;97267.69;;;13.79;84.80
15932;BME280;8065;49.520;11.284;2022-12-24T08:35:11;97270.19;;;13.72;84.42
15932;BME280;8065;49.520;11.284;2022-12-24T08:37:38;97275.09;;;13.70;85.10
15932;BME280;8065;49.520;11.284;2022-12-24T08:40:07;97272.50;;;13.73;84.29
15932;BME280;8065;49.520;11.284;2022-12-24T08:42:34;97282.47;;;13.61;84.59
15932;BME280;8065;49.520;11.284;2022-12-24T08:45:00;97266.81;;;13.75;84.53
15932;BME280;8065;49.520;11.284;2022-12-24T08:47:27;97271.66;;;13.69;84.74
15932;BME280;8065;49.520;11.284;2022-12-24T08:49:53;97284.06;;;13.77;84.51
15932;BME280;8065;49.520;11.284;2022-12-24T08:52:20;97281.28;;;13.90;83.68
15932;BME280;8065;49.520;11.284;2022-12-24T08:54:46;97293.09;;;13.73;84.26
15932;BME280;8065;49.520;11.284;2022-12-24T08:57:14;97297.31;;;13.90;83.82
15932;BME280;8065;49.520;11.284;2022-12-24T08:59:40;97299.13;;;14.01;83.45
15932;BME280;8065;49.520;11.284;2022-12-24T09:02:07;97303.88;;;14.08;83.59
15932;BME280;8065;49.520;11.284;2022-12-24T09:04:36;97306.22;;;14.09;83.69
15932;BME280;8065;49.520;11.284;2022-12-24T09:07:03;97313.34;;;13.90;83.74
15932;BME280;8065;49.520;11.284;2022-12-24T09:09:30;97313.34;;;14.05;83.18
15932;BME280;8065;49.520;11.284;2022-12-24T09:11:56;97312.84;;;14.16;82.87
15932;BME280;8065;49.520;11.284;2022-12-24T09:14:24;97317.75;;;14.14;83.40
15932;BME280;8065;49.520;11.284;2022-12-24T09:16:50;97323.63;;;14.03;83.25
15932;BME280;8065;49.520;11.284;2022-12-24T09:19:17;97319.31;;;14.15;83.28
15932;BME280;8065;49.520;11.284;2022-12-24T09:21:44;97318.00;;;14.08;82.73
15932;BME280;8065;49.520;11.284;2022-12-24T09:24:10;97320.69;;;14.08;83.01
15932;BME280;8065;49.520;11.284;2022-12-24T09:26:39;97324.56;;;14.11;82.95
15932;BME280;8065;49.520;11.284;2022-12-24T09:29:07;97326.47;;;14.10;82.68
15932;BME280;8065;49.520;11.284;2022-12-24T09:31:36;97332.16;;;14.25;82.74
15932;BME280;8065;49.520;11.284;2022-12-24T09:34:03;97338.63;;;14.24;81.84
15932;BME280;8065;49.520;11.284;2022-12-24T09:36:29;97339.56;;;14.31;82.27
15932;BME280;8065;49.520;11.284;2022-12-24T09:38:55;97337.75;;;14.20;82.20
15932;BME280;8065;49.520;11.284;2022-12-24T09:41:31;97345.88;;;14.39;81.40
15932;BME280;8065;49.520;11.284;2022-12-24T09:44:17;97354.00;;;14.42;81.35
15932;BME280;8065;49.520;11.284;2022-12-24T09:46:48;97350.97;;;14.60;81.10
15932;BME280;8065;49.520;11.284;2022-12-24T09:49:20;97361.94;;;14.70;80.92
15932;BME280;8065;49.520;11.284;2022-12-24T09:51:50;97348.22;;;14.72;80.49
15932;BME280;8065;49.520;11.284;2022-12-24T09:54:21;97349.25;;;14.67;80.45
15932;BME280;8065;49.520;11.284;2022-12-24T09:56:49;97347.69;;;14.66;79.83
15932;BME280;8065;49.520;11.284;2022-12-24T09:59:19;97355.03;;;14.69;80.68
15932;BME280;8065;49.520;11.284;2022-12-24T10:01:50;97349.09;;;14.60;80.04
15932;BME280;8065;49.520;11.284;2022-12-24T10:04:19;97352.06;;;14.74;79.98
15932;BME280;8065;49.520;11.284;2022-12-24T10:06:49;97359.25;;;14.70;79.99
15932;BME280;8065;49.520;11.284;2022-12-24T10:09:25;97356.25;;;14.72;79.92
15932;BME280;8065;49.520;11.284;2022-12-24T10:12:00;97366.50;;;14.54;80.04
15932;BME280;8065;49.520;11.284;2022-12-24T10:14:44;97355.47;;;14.71;79.87
15932;BME280;8065;49.520;11.284;2022-12-24T10:17:29;97354.47;;;14.80;80.04
15932;BME280;8065;49.520;11.284;2022-12-24T10:20:10;97360.50;;;14.76;78.92
15932;BME280;8065;49.520;11.284;2022-12-24T10:22:50;97344.53;;;14.80;79.37
15932;BME280;8065;49.520;11.284;2022-12-24T10:25:21;97350.16;;;14.75;78.92
15932;BME280;8065;49.520;11.284;2022-12-24T10:27:50;97344.34;;;14.69;78.60
15932;BME280;8065;49.520;11.284;2022-12-24T10:30:22;97352.16;;;14.78;78.73
15932;BME280;8065;49.520;11.284;2022-12-24T10:32:51;97353.56;;;14.72;78.67
15932;BME280;8065;49.520;11.284;2022-12-24T10:35:22;97357.91;;;14.80;78.32
15932;BME280;8065;49.520;11.284;2022-12-24T10:37:49;97358.28;;;14.79;77.97
15932;BME280;8065;49.520;11.284;2022-12-24T10:40:27;97362.84;;;14.78;77.86
15932;BME280;8065;49.520;11.284;2022-12-24T10:42:55;97364.91;;;14.85;78.10
15932;BME280;8065;49.520;11.284;2022-12-24T10:45:25;97378.09;;;14.93;78.29
15932;BME280;8065;49.520;11.284;2022-12-24T10:48:00;97362.75;;;14.74;77.98
15932;BME280;8065;49.520;11.284;2022-12-24T10:50:33;97371.47;;;14.87;77.69
15932;BME280;8065;49.520;11.284;2022-12-24T10:53:13;97369.91;;;14.86;77.23
15932;BME280;8065;49.520;11.284;2022-12-24T10:55:42;97376.81;;;14.87;77.12
15932;BME280;8065;49.520;11.284;2022-12-24T10:58:15;97375.41;;;14.93;77.61
15932;BME280;8065;49.520;11.284;2022-12-24T11:00:48;97378.38;;;14.88;77.43
15932;BME280;8065;49.520;11.284;2022-12-24T11:03:23;97383.47;;;14.77;77.23
15932;BME280;8065;49.520;11.284;2022-12-24T11:06:02;97382.66;;;14.93;77.81
15932;BME280;8065;49.520;11.284;2022-12-24T11:08:30;97386.19;;;14.97;76.96
15932;BME280;8065;49.520;11.284;2022-12-24T11:11:00;97398.63;;;15.05;77.71
15932;BME280;8065;49.520;11.284;2022-12-24T11:13:28;97393.19;;;15.01;77.44
15932;BME280;8065;49.520;11.284;2022-12-24T11:16:00;97397.69;;;14.97;77.01
15932;BME280;8065;49.520;11.284;2022-12-24T11:18:30;97400.59;;;15.08;76.62
15932;BME280;8065;49.520;11.284;2022-12-24T11:20:57;97389.94;;;14.92;77.27
15932;BME280;8065;49.520;11.284;2022-12-24T11:23:26;97387.13;;;15.04;76.81
15932;BME280;8065;49.520;11.284;2022-12-24T11:25:53;97398.63;;;15.05;76.34
15932;BME280;8065;49.520;11.284;2022-12-24T11:28:22;97394.19;;;15.13;76.67
15932;BME280;8065;49.520;11.284;2022-12-24T11:30:58;97384.28;;;15.13;76.67
15932;BME280;8065;49.520;11.284;2022-12-24T11:33:25;97385.41;;;15.12;76.76
15932;BME280;8065;49.520;11.284;2022-12-24T11:35:56;97381.88;;;15.08;77.39
15932;BME280;8065;49.520;11.284;2022-12-24T11:38:26;97379.00;;;15.17;76.66
15932;BME280;8065;49.520;11.284;2022-12-24T11:41:03;97386.88;;;15.09;77.10
15932;BME280;8065;49.520;11.284;2022-12-24T11:43:41;97385.34;;;15.28;76.15
15932;BME280;8065;49.520;11.284;2022-12-24T11:46:14;97387.84;;;15.36;76.50
15932;BME280;8065;49.520;11.284;2022-12-24T11:48:41;97392.34;;;15.32;76.28
15932;BME280;8065;49.520;11.284;2022-12-24T11:51:19;97392.75;;;15.34;76.28
15932;BME280;8065;49.520;11.284;2022-12-24T11:53:49;97381.06;;;15.43;75.86
15932;BME280;8065;49.520;11.284;2022-12-24T11:56:24;97374.94;;;15.42;76.63
15932;BME280;8065;49.520;11.284;2022-12-24T11:58:55;97380.44;;;15.49;75.73
15932;BME280;8065;49.520;11.284;2022-12-24T12:01:28;97379.31;;;15.50;76.03
15932;BME280;8065;49.520;11.284;2022-12-24T12:03:57;97373.69;;;15.55;76.57
15932;BME280;8065;49.520;11.284;2022-12-24T12:06:32;97384.97;;;15.45;75.86
15932;BME280;8065;49.520;11.284;2022-12-24T12:09:05;97387.72;;;15.49;76.45
15932;BME280;8065;49.520;11.284;2022-12-24T12:11:33;97396.16;;;15.51;76.30
15932;BME280;8065;49.520;11.284;2022-12-24T12:14:02;97394.63;;;15.50;76.49
15932;BME280;8065;49.520;11.284;2022-12-24T12:16:33;97390.94;;;15.38;75.42
15932;BME280;8065;49.520;11.284;2022-12-24T12:19:26;97396.72;;;15.40;76.04
15932;BME280;8065;49.520;11.284;2022-12-24T12:21:54;97392.28;;;15.48;75.93
15932;BME280;8065;49.520;11.284;2022-12-24T12:24:24;97390.09;;;15.54;75.53
15932;BME280;8065;49.520;11.284;2022-12-24T12:27:06;97391.41;;;15.60;75.05
15932;BME280;8065;49.520;11.284;2022-12-24T12:29:41;97382.63;;;15.63;75.13
15932;BME280;8065;49.520;11.284;2022-12-24T12:32:15;97399.78;;;15.58;74.74
15932;BME280;8065;49.520;11.284;2022-12-24T12:34:56;97385.19;;;15.56;74.46
15932;BME280;8065;49.520;11.284;2022-12-24T12:37:29;97387.56;;;15.61;74.32
15932;BME280;8065;49.520;11.284;2022-12-24T12:39:58;97395.75;;;15.49;73.48
15932;BME280;8065;49.520;11.284;2022-12-24T12:42:28;97396.00;;;15.59;73.89
15932;BME280;8065;49.520;11.284;2022-12-24T12:45:06;97397.50;;;15.60;73.50
15932;BME280;8065;49.520;11.284;2022-12-24T12:47:48;97403.66;;;15.61;73.88
15932;BME280;8065;49.520;11.284;2022-12-24T12:50:22;97396.03;;;15.44;73.71
15932;BME280;8065;49.520;11.284;2022-12-24T12:53:06;97399.69;;;15.55;73.12
15932;BME280;8065;49.520;11.284;2022-12-24T12:55:45;97403.50;;;15.54;73.43
15932;BME280;8065;49.520;11.284;2022-12-24T12:58:18;97402.28;;;15.32;73.12
15932;BME280;8065;49.520;11.284;2022-12-24T13:00:48;97398.63;;;15.40;73.17
15932;BME280;8065;49.520;11.284;2022-12-24T13:03:44;97396.59;;;15.53;73.54
15932;BME280;8065;49.520;11.284;2022-12-24T13:06:25;97397.28;;;15.50;73.39
15932;BME280;8065;49.520;11.284;2022-12-24T13:09:07;97408.97;;;15.57;72.95
15932;BME280;8065;49.520;11.284;2022-12-24T13:11:49;97402.56;;;15.46;72.68